createdAt,value
2023-05-19T00:00:38.277Z,18.3601
2023-05-19T00:01:39.983Z,18.3926
2023-05-19T00:02:42.450Z,18.4033
2023-05-19T00:03:43.415Z,18.4109
2023-05-19T00:04:44.880Z,18.4080
2023-05-19T00:05:46.599Z,18.3858
2023-05-19T00:06:48.140Z,18.3883
2023-05-19T00:07:49.868Z,18.4010
2023-05-19T00:08:51.981Z,18.3837
2023-05-19T00:09:53.104Z,18.3558
2023-05-19T00:10:54.860Z,18.3334
2023-05-19T00:11:56.511Z,18.3511
2023-05-19T00:12:58.083Z,18.3813
2023-05-19T00:13:59.746Z,18.3895
2023-05-19T00:15:01.338Z,18.3965
2023-05-19T00:16:03.042Z,18.3663
2023-05-19T00:17:04.637Z,18.3361
2023-05-19T00:18:06.366Z,18.3069
2023-05-19T00:19:08.022Z,18.2817
2023-05-19T00:20:09.595Z,18.2856
2023-05-19T00:21:11.189Z,18.3069
2023-05-19T00:22:12.899Z,18.3244
2023-05-19T00:23:14.499Z,18.3252
2023-05-19T00:24:16.190Z,18.3059
2023-05-19T00:25:17.795Z,18.2942
2023-05-19T00:26:19.506Z,18.2184
2023-05-19T00:27:21.106Z,18.2091
2023-05-19T00:28:22.770Z,18.2379
2023-05-19T00:29:24.388Z,18.2716
2023-05-19T00:30:26.080Z,18.2876
2023-05-19T00:31:27.747Z,18.2506
2023-05-19T00:32:29.416Z,18.1970
2023-05-19T00:33:30.992Z,18.1960
2023-05-19T00:34:32.921Z,18.1769
2023-05-19T00:35:34.280Z,18.1377
2023-05-19T00:36:35.979Z,18.1360
2023-05-19T00:37:37.510Z,18.1623
2023-05-19T00:38:39.214Z,18.1931
2023-05-19T00:39:40.915Z,18.2202
2023-05-19T00:40:42.600Z,18.1790
2023-05-19T00:41:44.160Z,18.1909
2023-05-19T00:42:45.832Z,18.1701
2023-05-19T00:43:47.403Z,18.1122
2023-05-19T00:44:49.163Z,18.1064
2023-05-19T00:45:51.411Z,18.1200
2023-05-19T00:46:52.391Z,18.1656
2023-05-19T00:47:53.993Z,18.1870
2023-05-19T00:48:55.665Z,18.1746
2023-05-19T00:49:57.302Z,18.1672
2023-05-19T00:50:58.984Z,18.1239
2023-05-19T00:52:00.557Z,18.1023
2023-05-19T00:53:02.254Z,18.0838
2023-05-19T00:54:03.850Z,18.1077
2023-05-19T00:55:05.948Z,18.1272
2023-05-19T00:56:07.186Z,18.1514
2023-05-19T00:57:08.783Z,18.1319
2023-05-19T00:58:11.417Z,18.1294
2023-05-19T00:59:12.143Z,18.1097
2023-05-19T01:00:13.745Z,18.1011
2023-05-19T01:01:15.442Z,18.0937
2023-05-19T01:02:17.027Z,18.1124
2023-05-19T01:03:18.728Z,18.1319
2023-05-19T01:04:20.308Z,18.1307
2023-05-19T01:05:22.112Z,18.1079
2023-05-19T01:06:23.646Z,18.0894
2023-05-19T01:07:25.290Z,18.0713
2023-05-19T01:08:27.012Z,18.0606
2023-05-19T01:09:28.591Z,18.0658
2023-05-19T01:10:30.421Z,18.0654
2023-05-19T01:11:32.411Z,18.0925
2023-05-19T01:12:33.468Z,18.0808
2023-05-19T01:13:35.185Z,18.0660
2023-05-19T01:14:36.732Z,18.0754
2023-05-19T01:15:38.457Z,18.0518
2023-05-19T01:16:40.128Z,18.0689
2023-05-19T01:17:41.820Z,18.0699
2023-05-19T01:18:43.365Z,18.0875
2023-05-19T01:19:45.027Z,18.0960
2023-05-19T01:20:46.668Z,18.0947
2023-05-19T01:21:48.394Z,18.0235
2023-05-19T01:22:49.969Z,17.9857
2023-05-19T01:23:51.580Z,17.9670
2023-05-19T01:24:53.942Z,17.9844
2023-05-19T01:25:54.957Z,18.0282
2023-05-19T01:26:56.965Z,18.0399
2023-05-19T01:27:58.187Z,18.0343
2023-05-19T01:28:59.765Z,18.0206
2023-05-19T01:30:01.547Z,17.9717
2023-05-19T01:31:03.161Z,17.9725
2023-05-19T01:32:04.852Z,17.9793
2023-05-19T01:33:06.470Z,17.9758
2023-05-19T01:34:08.120Z,17.9431
2023-05-19T01:35:09.689Z,17.9495
2023-05-19T01:36:11.322Z,17.9846
2023-05-19T01:37:13.948Z,18.0019
2023-05-19T01:38:14.633Z,18.0198
2023-05-19T01:39:16.282Z,17.9982
2023-05-19T01:40:17.872Z,17.9828
2023-05-19T01:41:19.586Z,17.9612
2023-05-19T01:42:21.230Z,17.9505
2023-05-19T01:43:22.830Z,17.9314
2023-05-19T01:44:25.451Z,17.9569
2023-05-19T01:45:26.148Z,17.9943
2023-05-19T01:46:27.936Z,18.0066
2023-05-19T01:47:29.510Z,17.9963
2023-05-19T01:48:31.092Z,17.9892
2023-05-19T01:49:32.739Z,17.9694
2023-05-19T01:50:34.603Z,17.9816
2023-05-19T01:51:36.097Z,17.9620
2023-05-19T01:52:38.400Z,17.9583
2023-05-19T01:53:39.344Z,17.9813
2023-05-19T01:54:40.947Z,17.9803
2023-05-19T01:55:42.662Z,17.9754
2023-05-19T01:56:44.427Z,17.9744
2023-05-19T01:57:45.994Z,17.9935
2023-05-19T01:58:47.603Z,17.9787
2023-05-19T01:59:49.264Z,17.9668
2023-05-19T02:00:50.894Z,17.9442
2023-05-19T02:01:52.613Z,17.9616
2023-05-19T02:02:54.249Z,17.9368
2023-05-19T02:03:55.792Z,17.9616
2023-05-19T02:04:57.524Z,17.9664
2023-05-19T02:05:59.229Z,17.9592
2023-05-19T02:07:00.770Z,17.9672
2023-05-19T02:08:02.515Z,17.9522
2023-05-19T02:09:04.073Z,17.9345
2023-05-19T02:10:05.724Z,17.9366
2023-05-19T02:11:07.311Z,17.9281
2023-05-19T02:12:09.063Z,17.9846
2023-05-19T02:13:10.984Z,17.9912
2023-05-19T02:14:12.327Z,17.9573
2023-05-19T02:15:13.914Z,17.9107
2023-05-19T02:16:15.639Z,17.9056
2023-05-19T02:17:17.241Z,17.9045
2023-05-19T02:18:18.883Z,17.9604
2023-05-19T02:19:20.667Z,17.9984
2023-05-19T02:20:22.206Z,18.0033
2023-05-19T02:21:23.818Z,17.9801
2023-05-19T02:22:25.464Z,17.9583
2023-05-19T02:23:27.111Z,17.9661
2023-05-19T02:24:28.744Z,17.9516
2023-05-19T02:25:30.390Z,17.9659
2023-05-19T02:26:32.020Z,17.9590
2023-05-19T02:27:33.932Z,17.9549
2023-05-19T02:28:35.360Z,17.9518
2023-05-19T02:29:37.912Z,17.8899
2023-05-19T02:30:38.596Z,17.9210
2023-05-19T02:31:40.308Z,17.9230
2023-05-19T02:32:41.962Z,17.9758
2023-05-19T02:33:43.940Z,17.9661
2023-05-19T02:34:45.215Z,17.9670
2023-05-19T02:35:46.786Z,17.9427
2023-05-19T02:36:48.439Z,17.9376
2023-05-19T02:37:50.224Z,17.9302
2023-05-19T02:38:51.756Z,17.9440
2023-05-19T02:39:53.391Z,17.9828
2023-05-19T02:40:55.141Z,17.9692
2023-05-19T02:41:56.756Z,17.9791
2023-05-19T02:42:58.356Z,17.9516
2023-05-19T02:44:00.476Z,17.9579
2023-05-19T02:45:01.602Z,17.9606
2023-05-19T02:46:03.317Z,17.9672
2023-05-19T02:47:04.882Z,17.9725
2023-05-19T02:48:06.699Z,17.9581
2023-05-19T02:49:08.315Z,17.9421
2023-05-19T02:50:09.924Z,17.8842
2023-05-19T02:51:11.562Z,17.8452
2023-05-19T02:52:13.318Z,17.7466
2023-05-19T02:53:15.064Z,17.7464
2023-05-19T02:54:17.006Z,17.9232
2023-05-19T02:55:18.124Z,18.1773
2023-05-19T02:56:19.819Z,18.5633
2023-05-19T02:57:21.427Z,18.8669
2023-05-19T02:58:23.165Z,19.0437
2023-05-19T02:59:25.715Z,19.1189
2023-05-19T03:00:26.366Z,19.1516
2023-05-19T03:01:28.062Z,19.1540
2023-05-19T03:02:29.764Z,19.1645
2023-05-19T03:03:31.436Z,19.1707
2023-05-19T03:04:32.943Z,19.1495
2023-05-19T03:05:34.659Z,19.2142
2023-05-19T03:06:36.269Z,19.2206
2023-05-19T03:07:38.582Z,19.2551
2023-05-19T03:08:42.176Z,19.2812
2023-05-19T03:09:41.188Z,19.2325
2023-05-19T03:10:42.708Z,19.2380
2023-05-19T03:11:44.393Z,19.2855
2023-05-19T03:12:46.010Z,19.3089
2023-05-19T03:13:47.728Z,19.3054
2023-05-19T03:14:49.390Z,19.3488
2023-05-19T03:15:50.963Z,19.3763
2023-05-19T03:16:52.846Z,19.3940
2023-05-19T03:17:54.278Z,19.4416
2023-05-19T03:18:55.899Z,19.4788
2023-05-19T03:19:57.553Z,19.4983
2023-05-19T03:20:59.179Z,19.4874
2023-05-19T03:22:00.767Z,19.5174
2023-05-19T03:23:02.384Z,19.4794
2023-05-19T03:24:04.108Z,19.4874
2023-05-19T03:25:09.003Z,19.5234
2023-05-19T03:26:07.366Z,19.5579
2023-05-19T03:27:09.029Z,19.5577
2023-05-19T03:28:10.663Z,19.5566
2023-05-19T03:29:12.275Z,19.5948
2023-05-19T03:30:15.017Z,19.6107
2023-05-19T03:31:15.582Z,19.5266
2023-05-19T03:32:17.249Z,19.5930
2023-05-19T03:33:18.927Z,19.6224
2023-05-19T03:34:21.495Z,19.6211
2023-05-19T03:35:22.155Z,19.6676
2023-05-19T03:36:23.745Z,19.7080
2023-05-19T03:37:25.411Z,19.7479
2023-05-19T03:38:27.048Z,19.6819
2023-05-19T03:39:28.660Z,19.6384
2023-05-19T03:40:30.554Z,19.6351
2023-05-19T03:41:32.040Z,19.6265
2023-05-19T03:42:33.693Z,19.6022
2023-05-19T03:43:35.324Z,19.5764
2023-05-19T03:44:36.965Z,19.5973
2023-05-19T03:45:38.681Z,19.5844
2023-05-19T03:46:40.273Z,19.5975
2023-05-19T03:47:41.914Z,19.5784
2023-05-19T03:48:43.578Z,19.5708
2023-05-19T03:49:45.176Z,19.5361
2023-05-19T03:50:46.869Z,19.3948
2023-05-19T03:51:48.443Z,19.4574
2023-05-19T03:52:50.127Z,19.5587
2023-05-19T03:53:51.775Z,19.5158
2023-05-19T03:54:54.482Z,19.5047
2023-05-19T03:55:55.443Z,19.5225
2023-05-19T03:56:56.694Z,19.4044
2023-05-19T03:57:58.373Z,19.4630
2023-05-19T03:59:00.029Z,19.5071
2023-05-19T04:00:01.789Z,19.5297
2023-05-19T04:01:03.373Z,19.5690
2023-05-19T04:02:04.934Z,19.6092
2023-05-19T04:03:06.632Z,19.6273
2023-05-19T04:04:08.269Z,19.5973
2023-05-19T04:05:10.001Z,19.5418
2023-05-19T04:06:11.522Z,19.5266
2023-05-19T04:07:13.181Z,19.5764
2023-05-19T04:08:14.776Z,19.5710
2023-05-19T04:09:16.452Z,19.5441
2023-05-19T04:10:19.239Z,19.6061
2023-05-19T04:11:19.904Z,19.6201
2023-05-19T04:12:21.571Z,19.6491
2023-05-19T04:13:23.237Z,19.6409
2023-05-19T04:14:25.769Z,19.6470
2023-05-19T04:15:27.327Z,19.6437
2023-05-19T04:16:28.224Z,19.6575
2023-05-19T04:17:29.769Z,19.6526
2023-05-19T04:18:31.434Z,19.7039
2023-05-19T04:19:33.027Z,19.7565
2023-05-19T04:20:35.158Z,19.7931
2023-05-19T04:21:36.288Z,19.7933
2023-05-19T04:22:37.972Z,19.7972
2023-05-19T04:23:39.615Z,19.7853
2023-05-19T04:24:41.274Z,19.7224
2023-05-19T04:25:42.940Z,19.6741
2023-05-19T04:26:44.573Z,19.7345
2023-05-19T04:27:46.235Z,19.7312
2023-05-19T04:28:47.879Z,19.7475
2023-05-19T04:29:49.469Z,19.7312
2023-05-19T04:30:51.307Z,19.7259
2023-05-19T04:31:52.779Z,19.6914
2023-05-19T04:32:55.431Z,19.7727
2023-05-19T04:33:55.973Z,19.7520
2023-05-19T04:34:57.754Z,19.7530
2023-05-19T04:35:59.405Z,19.7696
2023-05-19T04:37:01.029Z,19.7818
2023-05-19T04:38:02.664Z,19.8278
2023-05-19T04:39:04.286Z,19.8621
2023-05-19T04:40:06.176Z,19.8567
2023-05-19T04:41:07.558Z,19.8841
2023-05-19T04:42:09.234Z,19.9340
2023-05-19T04:43:10.866Z,19.9962
2023-05-19T04:44:12.479Z,19.9825
2023-05-19T04:45:14.336Z,19.9913
2023-05-19T04:46:16.902Z,19.8949
2023-05-19T04:47:17.323Z,19.8623
2023-05-19T04:48:19.106Z,19.9130
2023-05-19T04:49:20.649Z,19.9970
2023-05-19T04:50:22.423Z,19.9545
2023-05-19T04:51:24.031Z,19.9833
2023-05-19T04:52:25.719Z,20.0346
2023-05-19T04:53:27.277Z,20.1934
2023-05-19T04:54:28.966Z,20.4557
2023-05-19T04:55:30.551Z,20.8904
2023-05-19T04:56:32.328Z,21.1985
2023-05-19T04:57:33.821Z,21.6771
2023-05-19T04:58:35.475Z,22.2257
2023-05-19T04:59:37.690Z,22.6922
2023-05-19T05:00:38.749Z,23.1589
2023-05-19T05:01:40.519Z,23.5334
2023-05-19T05:02:43.251Z,23.7326
2023-05-19T05:03:43.731Z,23.9171
2023-05-19T05:04:45.291Z,24.1276
2023-05-19T05:05:46.969Z,24.4953
2023-05-19T05:06:48.673Z,24.7564
2023-05-19T05:07:51.187Z,24.8396
2023-05-19T05:08:51.857Z,24.8459
2023-05-19T05:09:53.441Z,25.0503
2023-05-19T05:10:55.125Z,25.3040
2023-05-19T05:11:56.904Z,25.5661
2023-05-19T05:12:58.427Z,25.5860
2023-05-19T05:14:00.178Z,25.5119
2023-05-19T05:15:01.788Z,25.5150
2023-05-19T05:16:03.442Z,25.6838
2023-05-19T05:17:05.211Z,25.9607
2023-05-19T05:18:06.704Z,26.0225
2023-05-19T05:19:08.341Z,26.0367
2023-05-19T05:20:09.954Z,26.0392
2023-05-19T05:21:11.604Z,26.1758
2023-05-19T05:22:13.278Z,26.3430
2023-05-19T05:23:14.925Z,26.4578
2023-05-19T05:24:16.476Z,26.4165
2023-05-19T05:25:18.272Z,26.3323
2023-05-19T05:26:19.838Z,26.3762
2023-05-19T05:27:21.564Z,26.3960
2023-05-19T05:28:23.084Z,26.6616
2023-05-19T05:29:24.790Z,26.5498
2023-05-19T05:30:26.335Z,26.5235
2023-05-19T05:31:28.016Z,26.4576
2023-05-19T05:32:30.809Z,26.5194
2023-05-19T05:33:31.190Z,26.7686
2023-05-19T05:34:33.043Z,26.7690
2023-05-19T05:35:34.676Z,26.7345
2023-05-19T05:36:36.328Z,26.6390
2023-05-19T05:37:37.912Z,26.6991
2023-05-19T05:38:39.611Z,26.8614
2023-05-19T05:39:42.198Z,26.9641
2023-05-19T05:40:42.809Z,26.8536
2023-05-19T05:41:44.491Z,26.7343
2023-05-19T05:42:46.178Z,26.6229
2023-05-19T05:43:48.754Z,26.6328
2023-05-19T05:44:50.373Z,26.8770
2023-05-19T05:45:51.097Z,26.7959
2023-05-19T05:46:52.712Z,26.8222
2023-05-19T05:47:55.261Z,26.7072
2023-05-19T05:48:56.958Z,26.7879
2023-05-19T05:49:58.491Z,26.9442
2023-05-19T05:50:59.361Z,26.9999
2023-05-19T05:52:06.428Z,26.9411
2023-05-19T05:53:02.528Z,26.8152
2023-05-19T05:54:04.084Z,26.7690
2023-05-19T05:55:05.807Z,26.8267
2023-05-19T05:56:07.436Z,26.9436
2023-05-19T05:57:09.113Z,26.7928
2023-05-19T05:58:10.724Z,26.7090
2023-05-19T05:59:12.338Z,26.6381
2023-05-19T06:00:13.993Z,26.7470
2023-05-19T06:01:15.689Z,26.9487
2023-05-19T06:02:17.331Z,26.9064
2023-05-19T06:03:19.061Z,26.9265
2023-05-19T06:04:20.573Z,26.8855
2023-05-19T06:05:23.128Z,26.8676
2023-05-19T06:06:23.881Z,27.1098
2023-05-19T06:07:25.573Z,27.0204
2023-05-19T06:08:27.150Z,27.0179
2023-05-19T06:09:28.754Z,26.8963
2023-05-19T06:10:30.552Z,26.9880
2023-05-19T06:11:32.058Z,27.1697
2023-05-19T06:12:33.663Z,27.2114
2023-05-19T06:13:35.572Z,27.1178
2023-05-19T06:14:36.956Z,26.9695
2023-05-19T06:15:38.679Z,26.8725
2023-05-19T06:16:40.331Z,26.9997
2023-05-19T06:17:41.960Z,27.2006
2023-05-19T06:18:43.637Z,27.1471
2023-05-19T06:19:45.302Z,27.0110
2023-05-19T06:20:46.897Z,27.0184
2023-05-19T06:21:48.504Z,27.1597
2023-05-19T06:22:50.083Z,27.2630
2023-05-19T06:23:51.848Z,27.2141
2023-05-19T06:24:53.389Z,27.1322
2023-05-19T06:25:55.071Z,26.9832
2023-05-19T06:26:56.808Z,27.0792
2023-05-19T06:27:58.433Z,27.2554
2023-05-19T06:29:00.126Z,27.3456
2023-05-19T06:30:01.726Z,27.2398
2023-05-19T06:31:03.312Z,27.2266
2023-05-19T06:32:04.912Z,27.2692
2023-05-19T06:33:06.601Z,27.3926
2023-05-19T06:34:08.263Z,27.4039
2023-05-19T06:35:09.844Z,27.3111
2023-05-19T06:36:11.448Z,27.1708
2023-05-19T06:37:13.245Z,27.1971
2023-05-19T06:38:14.799Z,27.3020
2023-05-19T06:39:17.121Z,27.3049
2023-05-19T06:40:18.072Z,27.1354
2023-05-19T06:41:19.698Z,27.0681
2023-05-19T06:42:21.335Z,26.9826
2023-05-19T06:43:22.991Z,27.1545
2023-05-19T06:44:24.708Z,27.3218
2023-05-19T06:45:26.271Z,27.1572
2023-05-19T06:46:27.971Z,27.1412
2023-05-19T06:47:29.656Z,27.0672
2023-05-19T06:48:31.224Z,27.2371
2023-05-19T06:49:33.136Z,27.3826
2023-05-19T06:50:34.849Z,27.2525
2023-05-19T06:51:36.184Z,27.2131
2023-05-19T06:52:37.790Z,27.0672
2023-05-19T06:53:39.501Z,27.1492
2023-05-19T06:54:41.247Z,27.3439
2023-05-19T06:55:57.499Z,27.1983
2023-05-19T06:56:44.500Z,27.1876
2023-05-19T06:57:46.098Z,27.1348
2023-05-19T06:58:47.753Z,27.2365
2023-05-19T06:59:49.448Z,27.3637
2023-05-19T07:00:51.013Z,27.3540
2023-05-19T07:01:52.770Z,27.1324
2023-05-19T07:02:55.128Z,27.1605
2023-05-19T07:03:56.068Z,27.0843
2023-05-19T07:04:58.087Z,27.2248
2023-05-19T07:05:59.609Z,27.4485
2023-05-19T07:07:00.873Z,27.3906
2023-05-19T07:08:02.586Z,27.3283
2023-05-19T07:09:04.225Z,27.2022
2023-05-19T07:10:05.831Z,27.3548
2023-05-19T07:11:07.469Z,27.5284
2023-05-19T07:12:09.105Z,27.3934
2023-05-19T07:13:10.748Z,27.4201
2023-05-19T07:14:12.387Z,27.1979
2023-05-19T07:15:14.075Z,27.2334
2023-05-19T07:16:15.728Z,27.4358
2023-05-19T07:17:17.314Z,27.5163
2023-05-19T07:18:19.095Z,27.3947
2023-05-19T07:19:20.762Z,27.4249
2023-05-19T07:20:23.147Z,27.3786
2023-05-19T07:21:23.880Z,27.5713
2023-05-19T07:22:25.586Z,27.6722
2023-05-19T07:23:27.125Z,27.4684
2023-05-19T07:24:28.810Z,27.4466
2023-05-19T07:25:30.486Z,27.2922
2023-05-19T07:26:32.050Z,27.4208
2023-05-19T07:27:33.663Z,27.6027
2023-05-19T07:28:35.298Z,27.5280
2023-05-19T07:29:36.952Z,27.4920
2023-05-19T07:30:38.590Z,27.3026
2023-05-19T07:31:41.091Z,27.3850
2023-05-19T07:32:41.896Z,27.5670
2023-05-19T07:33:43.496Z,27.4653
2023-05-19T07:34:45.206Z,27.4376
2023-05-19T07:35:46.878Z,27.3524
2023-05-19T07:36:48.568Z,27.5062
2023-05-19T07:37:50.055Z,27.6976
2023-05-19T07:38:51.778Z,27.6044
2023-05-19T07:39:53.384Z,27.5339
2023-05-19T07:40:55.151Z,27.3992
2023-05-19T07:41:56.711Z,27.4680
2023-05-19T07:42:58.306Z,27.5787
2023-05-19T07:43:59.944Z,27.5124
2023-05-19T07:45:01.748Z,27.3630
2023-05-19T07:46:03.589Z,27.3501
2023-05-19T07:47:05.064Z,27.4086
2023-05-19T07:48:06.826Z,27.5374
2023-05-19T07:49:09.323Z,27.4696
2023-05-19T07:50:09.931Z,27.4750
2023-05-19T07:51:11.806Z,27.3548
2023-05-19T07:52:13.389Z,27.2110
2023-05-19T07:53:15.904Z,27.3018
2023-05-19T07:54:16.465Z,27.4633
2023-05-19T07:55:19.100Z,27.4413
2023-05-19T07:56:19.871Z,27.4043
2023-05-19T07:57:21.588Z,27.3207
2023-05-19T07:58:24.269Z,27.4261
2023-05-19T07:59:25.652Z,27.5890
2023-05-19T08:00:26.430Z,27.5908
2023-05-19T08:01:29.049Z,27.6085
2023-05-19T08:02:29.771Z,27.6179
2023-05-19T08:03:31.406Z,27.6235
2023-05-19T08:04:33.069Z,27.8094
2023-05-19T08:05:34.631Z,27.8996
2023-05-19T08:06:36.348Z,27.9242
2023-05-19T08:07:38.032Z,27.9020
2023-05-19T08:08:39.573Z,27.6927
2023-05-19T08:09:41.243Z,27.7745
2023-05-19T08:10:42.884Z,27.8749
2023-05-19T08:11:44.467Z,27.7346
2023-05-19T08:12:46.750Z,27.7441
2023-05-19T08:13:47.705Z,27.5771
2023-05-19T08:14:49.476Z,27.6829
2023-05-19T08:15:51.123Z,27.9390
2023-05-19T08:16:52.716Z,27.7952
2023-05-19T08:17:54.402Z,27.7911
2023-05-19T08:18:56.081Z,27.6136
2023-05-19T08:19:57.798Z,27.4943
2023-05-19T08:21:00.349Z,27.6081
2023-05-19T08:22:00.821Z,27.7344
2023-05-19T08:23:02.564Z,27.5627
2023-05-19T08:24:04.249Z,27.5208
2023-05-19T08:25:05.904Z,27.3622
2023-05-19T08:26:07.488Z,27.4292
2023-05-19T08:27:09.148Z,27.6354
2023-05-19T08:28:10.752Z,27.5216
2023-05-19T08:29:12.486Z,27.5541
2023-05-19T08:30:14.214Z,27.4933
2023-05-19T08:31:15.813Z,27.5598
2023-05-19T08:32:17.439Z,27.7876
2023-05-19T08:33:19.039Z,27.8248
2023-05-19T08:34:20.757Z,27.8092
2023-05-19T08:35:23.397Z,27.6981
2023-05-19T08:36:24.187Z,27.5984
2023-05-19T08:37:25.597Z,27.5576
2023-05-19T08:38:27.276Z,27.7231
2023-05-19T08:39:28.876Z,27.8287
2023-05-19T08:40:30.711Z,27.7213
2023-05-19T08:41:32.300Z,27.7650
2023-05-19T08:42:34.839Z,27.8038
2023-05-19T08:43:35.356Z,27.7874
2023-05-19T08:44:37.109Z,27.9478
2023-05-19T08:45:38.832Z,27.9127
2023-05-19T08:46:40.454Z,27.5561
2023-05-19T08:47:42.076Z,27.6900
2023-05-19T08:48:43.709Z,27.6853
2023-05-19T08:49:45.305Z,27.8700
2023-05-19T08:50:46.945Z,27.7285
2023-05-19T08:51:48.700Z,27.3446
2023-05-19T08:52:52.958Z,27.0305
2023-05-19T08:53:51.913Z,26.6624
2023-05-19T08:54:53.470Z,26.4716
2023-05-19T08:55:56.162Z,26.3869
2023-05-19T08:56:56.782Z,26.0597
2023-05-19T08:57:58.388Z,25.6705
2023-05-19T08:58:59.990Z,25.4570
2023-05-19T09:00:01.669Z,25.2826
2023-05-19T09:01:03.322Z,25.2662
2023-05-19T09:02:05.702Z,25.2557
2023-05-19T09:04:08.373Z,24.6978
2023-05-19T09:05:09.948Z,24.6210
2023-05-19T09:06:11.513Z,24.6570
2023-05-19T09:07:13.190Z,24.7630
2023-05-19T09:08:14.960Z,24.6666
2023-05-19T09:09:16.481Z,24.5080
2023-05-19T09:10:18.177Z,24.4187
2023-05-19T09:11:19.761Z,24.4072
2023-05-19T09:12:21.538Z,24.4949
2023-05-19T09:13:23.038Z,24.5656
2023-05-19T09:14:24.667Z,24.3813
2023-05-19T09:15:26.321Z,24.2507
2023-05-19T09:16:29.942Z,24.1484
2023-05-19T09:17:29.631Z,24.1788
2023-05-19T09:18:31.315Z,24.2825
2023-05-19T09:19:33.036Z,24.2176
2023-05-19T09:20:34.638Z,23.9758
2023-05-19T09:21:36.172Z,23.8822
2023-05-19T09:22:38.225Z,23.8084
2023-05-19T09:23:39.469Z,23.8879
2023-05-19T09:24:41.202Z,24.0335
2023-05-19T09:25:42.716Z,23.9491
2023-05-19T09:26:44.425Z,23.8629
2023-05-19T09:27:46.160Z,23.7788
2023-05-19T09:28:47.735Z,23.7942
2023-05-19T09:29:49.303Z,23.9345
2023-05-19T09:30:51.012Z,24.0323
2023-05-19T09:31:52.738Z,23.9502
2023-05-19T09:32:54.341Z,23.8444
2023-05-19T09:33:56.074Z,23.7747
2023-05-19T09:34:57.549Z,23.8094
2023-05-19T09:35:59.175Z,23.9411
2023-05-19T09:37:00.903Z,23.9602
2023-05-19T09:38:02.488Z,23.9099
2023-05-19T09:39:04.229Z,23.8409
2023-05-19T09:40:05.798Z,23.8390
2023-05-19T09:41:07.484Z,23.9543
2023-05-19T09:42:09.082Z,24.0822
2023-05-19T09:43:10.730Z,24.0278
2023-05-19T09:44:12.400Z,23.9154
2023-05-19T09:45:14.043Z,23.8033
2023-05-19T09:46:15.595Z,23.8347
2023-05-19T09:47:17.313Z,23.9867
2023-05-19T09:48:18.922Z,24.0438
2023-05-19T09:49:20.618Z,23.9565
2023-05-19T09:50:22.208Z,23.8082
2023-05-19T09:51:23.855Z,23.7988
2023-05-19T09:52:25.503Z,23.9970
2023-05-19T09:53:27.226Z,24.3797
2023-05-19T09:54:28.849Z,24.6720
2023-05-19T09:55:31.099Z,24.9226
2023-05-19T09:56:32.120Z,25.2650
2023-05-19T09:57:33.696Z,25.6787
2023-05-19T09:58:35.563Z,26.1074
2023-05-19T09:59:37.041Z,26.3481
2023-05-19T10:00:38.703Z,26.4905
2023-05-19T10:01:40.389Z,26.5591
2023-05-19T10:02:41.960Z,26.7895
2023-05-19T10:03:43.535Z,26.9726
2023-05-19T10:04:45.854Z,27.1938
2023-05-19T10:05:46.883Z,27.1919
2023-05-19T10:06:48.461Z,27.2271
2023-05-19T10:07:50.114Z,27.2798
2023-05-19T10:08:51.741Z,27.3867
2023-05-19T10:09:53.752Z,27.6946
2023-05-19T10:10:55.072Z,27.6812
2023-05-19T10:11:57.181Z,27.8053
2023-05-19T10:12:58.381Z,27.8071
2023-05-19T10:14:00.012Z,27.7414
2023-05-19T10:15:01.598Z,27.9881
2023-05-19T10:16:03.586Z,28.0505
2023-05-19T10:17:05.069Z,28.0113
2023-05-19T10:18:06.557Z,28.0803
2023-05-19T10:19:08.206Z,27.9291
2023-05-19T10:20:09.841Z,28.0906
2023-05-19T10:21:11.495Z,28.1742
2023-05-19T10:22:13.049Z,28.2325
2023-05-19T10:23:15.159Z,28.3330
2023-05-19T10:24:16.301Z,28.3562
2023-05-19T10:25:17.924Z,28.2693
2023-05-19T10:26:19.523Z,28.3108
2023-05-19T10:27:21.247Z,28.3239
2023-05-19T10:28:22.916Z,28.3186
2023-05-19T10:29:24.666Z,28.4271
2023-05-19T10:30:26.137Z,28.4928
2023-05-19T10:31:27.787Z,28.4646
2023-05-19T10:32:29.698Z,28.5302
2023-05-19T10:33:31.631Z,28.4764
2023-05-19T10:34:32.699Z,28.4418
2023-05-19T10:35:34.521Z,28.4809
2023-05-19T10:36:36.052Z,28.4369
2023-05-19T10:37:38.186Z,28.4932
2023-05-19T10:38:39.296Z,28.7773
2023-05-19T10:39:41.109Z,28.7185
2023-05-19T10:40:42.765Z,28.9161
2023-05-19T10:41:45.137Z,29.0061
2023-05-19T10:42:46.019Z,29.0593
2023-05-19T10:43:47.678Z,29.0735
2023-05-19T10:44:49.340Z,29.0421
2023-05-19T10:45:51.003Z,29.2314
2023-05-19T10:46:54.162Z,29.2676
2023-05-19T10:47:54.257Z,29.1848
2023-05-19T10:48:56.966Z,28.8866
2023-05-19T10:49:57.467Z,28.4303
2023-05-19T10:50:59.160Z,28.1697
2023-05-19T10:52:00.758Z,27.7786
2023-05-19T10:53:03.376Z,27.5292
2023-05-19T10:54:04.154Z,27.3458
2023-05-19T10:55:05.738Z,27.0239
2023-05-19T10:56:07.449Z,26.7614
2023-05-19T10:57:09.125Z,26.5782
2023-05-19T10:58:10.838Z,26.5291
2023-05-19T10:59:12.874Z,26.5800
2023-05-19T11:00:15.177Z,26.4066
2023-05-19T11:01:15.761Z,26.1706
2023-05-19T11:02:18.399Z,25.9782
2023-05-19T11:03:20.229Z,25.9241
2023-05-19T11:04:20.781Z,25.9829
2023-05-19T11:05:22.232Z,26.0250
2023-05-19T11:06:23.955Z,25.8724
2023-05-19T11:07:25.556Z,25.7193
2023-05-19T11:08:27.298Z,25.6012
2023-05-19T11:09:39.879Z,25.6789
2023-05-19T11:10:31.348Z,25.7054
2023-05-19T11:11:33.230Z,25.5080
2023-05-19T11:12:33.710Z,25.4525
2023-05-19T11:13:36.667Z,25.2689
2023-05-19T11:14:37.057Z,25.2633
2023-05-19T11:15:38.575Z,25.4287
2023-05-19T11:16:41.404Z,25.3441
2023-05-19T11:17:41.983Z,25.3151
2023-05-19T11:18:43.685Z,25.2664
2023-05-19T11:19:45.249Z,25.2212
2023-05-19T11:20:47.071Z,25.3178
2023-05-19T11:21:48.570Z,25.4827
2023-05-19T11:22:50.169Z,25.4264
2023-05-19T11:23:51.938Z,25.4059
2023-05-19T11:24:53.890Z,25.3321
2023-05-19T11:25:55.895Z,25.3217
2023-05-19T11:26:56.739Z,25.4741
2023-05-19T11:27:58.497Z,25.4679
2023-05-19T11:29:00.023Z,25.1750
2023-05-19T11:30:01.836Z,25.0891
2023-05-19T11:31:03.404Z,25.0138
2023-05-19T11:32:05.078Z,25.1060
2023-05-19T11:33:06.686Z,25.2966
2023-05-19T11:34:08.247Z,25.1347
2023-05-19T11:35:09.932Z,25.1575
2023-05-19T11:36:11.579Z,25.0883
2023-05-19T11:37:13.353Z,25.2107
2023-05-19T11:38:15.795Z,25.4404
2023-05-19T11:39:17.465Z,25.5680
2023-05-19T11:40:18.126Z,25.5396
2023-05-19T11:41:20.848Z,25.5569
2023-05-19T11:42:21.474Z,25.5024
2023-05-19T11:43:23.145Z,25.5361
2023-05-19T11:44:24.742Z,25.6801
2023-05-19T11:45:26.392Z,25.5417
2023-05-19T11:46:29.066Z,25.5265
2023-05-19T11:47:32.042Z,25.4675
2023-05-19T11:48:31.319Z,25.4231
2023-05-19T11:49:32.787Z,25.5063
2023-05-19T11:50:34.451Z,25.6055
2023-05-19T11:51:36.126Z,25.4275
2023-05-19T11:52:38.277Z,25.3831
2023-05-19T11:53:39.388Z,25.2730
2023-05-19T11:54:41.029Z,25.2835
2023-05-19T11:55:42.654Z,25.4525
2023-05-19T11:56:44.367Z,25.4595
2023-05-19T11:57:56.038Z,25.2769
2023-05-19T11:58:47.602Z,25.2695
2023-05-19T11:59:49.314Z,25.2411
2023-05-19T12:00:50.863Z,25.3628
2023-05-19T12:01:52.565Z,25.5558
2023-05-19T12:02:54.390Z,25.4188
2023-05-19T12:03:55.986Z,25.3484
2023-05-19T12:04:57.541Z,25.3061
2023-05-19T12:05:59.193Z,25.3085
2023-05-19T12:07:00.777Z,25.4246
2023-05-19T12:08:02.463Z,25.5805
2023-05-19T12:09:04.000Z,25.3747
2023-05-19T12:10:05.718Z,25.3712
2023-05-19T12:11:07.302Z,25.3118
2023-05-19T12:12:09.128Z,25.3352
2023-05-19T12:13:10.930Z,25.4566
2023-05-19T12:14:12.271Z,25.4533
2023-05-19T12:15:13.858Z,25.2430
2023-05-19T12:16:15.586Z,25.2103
2023-05-19T12:17:17.195Z,25.1826
2023-05-19T12:18:18.864Z,25.2422
2023-05-19T12:19:20.480Z,25.3704
2023-05-19T12:20:22.086Z,25.3020
2023-05-19T12:21:23.767Z,25.1512
2023-05-19T12:22:25.515Z,25.1590
2023-05-19T12:23:27.090Z,25.1947
2023-05-19T12:24:28.679Z,25.3229
2023-05-19T12:25:30.348Z,25.5010
2023-05-19T12:26:32.054Z,25.4199